Time;durP1;ratioP1;P1;durP2;ratioP2;P2;SDS_P1;SDS_P2;PMS_P1;PMS_P2;Temp;Humidity;BMP_temperature;BMP_pressure;BME280_temperature;BME280_humidity;BME280_pressure;Samples;Min_cycle;Max_cycle;Signal;HPM_P1;HPM_P2
2023/01/15 00:01:16;;;;;;;1.02;0.60;;;8.90;99.90;;;;;;5094219;28;20157;-33
2023/01/15 00:03:42;;;;;;;4.07;0.70;;;8.90;99.90;;;;;;5094431;28;20347;-35
2023/01/15 00:06:07;;;;;;;1.35;0.70;;;8.90;99.90;;;;;;5093696;28;20039;-35
2023/01/15 00:08:34;;;;;;;1.42;0.70;;;8.90;99.90;;;;;;5093735;28;20044;-35
2023/01/15 00:11:02;;;;;;;1.30;0.70;;;8.90;99.90;;;;;;5094681;28;20494;-35
2023/01/15 00:13:28;;;;;;;0.70;0.50;;;8.90;99.90;;;;;;5094178;28;20040;-34
2023/01/15 00:16:02;;;;;;;1.73;0.68;;;8.90;99.90;;;;;;5094870;28;20024;-35
2023/01/15 00:18:28;;;;;;;3.20;0.82;;;8.90;99.90;;;;;;5095088;28;20031;-34
2023/01/15 00:21:02;;;;;;;0.90;0.60;;;8.90;99.90;;;;;;5094630;28;20101;-33
2023/01/15 00:29:01;;;;;;;2.75;0.65;;;8.90;99.90;;;;;;5094073;28;20034;-34
2023/01/15 00:31:27;;;;;;;1.33;0.60;;;8.90;99.90;;;;;;5093333;28;20024;-35
2023/01/15 00:33:53;;;;;;;0.98;0.60;;;8.90;99.90;;;;;;5093361;28;20113;-34
2023/01/15 00:36:19;;;;;;;0.73;0.45;;;8.90;99.90;;;;;;5093087;28;20063;-35
2023/01/15 00:38:44;;;;;;;0.88;0.50;;;8.90;99.90;;;;;;5093227;28;20024;-34
2023/01/15 00:41:10;;;;;;;2.10;0.82;;;8.90;99.90;;;;;;5093165;28;20053;-35
2023/01/15 00:43:36;;;;;;;1.05;0.60;;;8.90;99.90;;;;;;5093403;28;20047;-34
2023/01/15 00:46:03;;;;;;;1.02;0.60;;;8.90;99.90;;;;;;5093930;28;20070;-34
2023/01/15 00:48:29;;;;;;;1.25;0.70;;;8.90;99.90;;;;;;5094213;28;20017;-34
2023/01/15 00:50:57;;;;;;;0.80;0.77;;;8.90;99.90;;;;;;5093921;28;20034;-34
2023/01/15 00:53:23;;;;;;;0.85;0.55;;;8.90;99.90;;;;;;5094737;28;20028;-33
2023/01/15 00:55:49;;;;;;;1.05;0.55;;;8.90;99.90;;;;;;5092800;28;20031;-34
2023/01/15 00:58:15;;;;;;;1.00;0.50;;;8.90;99.90;;;;;;5092780;28;20036;-35
2023/01/15 01:00:41;;;;;;;0.85;0.63;;;8.90;99.90;;;;;;5093092;28;20108;-35
2023/01/15 01:03:07;;;;;;;0.82;0.52;;;8.90;99.90;;;;;;5092802;28;20113;-35
2023/01/15 01:05:32;;;;;;;0.30;0.30;;;8.90;99.90;;;;;;5092798;28;20030;-34
2023/01/15 01:07:59;;;;;;;0.68;0.57;;;8.90;99.90;;;;;;5092783;28;20031;-35
2023/01/15 01:10:25;;;;;;;0.63;0.40;;;9.00;99.90;;;;;;5093175;28;20024;-34
2023/01/15 01:12:51;;;;;;;1.98;0.60;;;8.90;99.90;;;;;;5092696;28;20439;-35
2023/01/15 01:15:21;;;;;;;0.95;0.50;;;8.90;99.90;;;;;;5092463;28;20370;-34
2023/01/15 01:17:46;;;;;;;0.98;0.50;;;8.90;99.90;;;;;;5092302;28;20386;-35
2023/01/15 01:20:14;;;;;;;1.17;0.43;;;8.90;99.90;;;;;;5092457;28;20024;-35
2023/01/15 01:22:40;;;;;;;0.57;0.40;;;8.90;99.90;;;;;;5092468;28;20020;-34
2023/01/15 01:25:07;;;;;;;0.90;0.50;;;8.90;99.90;;;;;;5092417;28;20028;-33
2023/01/15 01:27:33;;;;;;;0.60;0.50;;;8.90;99.90;;;;;;5091783;28;20028;-33
2023/01/15 01:29:58;;;;;;;0.60;0.35;;;8.90;99.90;;;;;;5092200;28;20032;-35
2023/01/15 01:32:24;;;;;;;1.55;0.43;;;8.90;99.90;;;;;;5092269;28;20020;-34
2023/01/15 01:34:50;;;;;;;1.35;0.45;;;8.90;99.90;;;;;;5092300;28;20034;-34
2023/01/15 01:37:18;;;;;;;0.60;0.50;;;8.90;99.90;;;;;;5091981;28;20038;-35
2023/01/15 01:39:44;;;;;;;0.60;0.50;;;8.90;99.90;;;;;;5092152;28;20034;-34
2023/01/15 01:42:14;;;;;;;0.45;0.22;;;9.00;99.90;;;;;;5093129;28;20020;-35
2023/01/15 01:44:43;;;;;;;0.70;0.47;;;8.90;99.90;;;;;;5092031;28;20032;-34
2023/01/15 01:47:23;;;;;;;0.30;0.30;;;8.90;99.90;;;;;;5091810;28;20382;-34
2023/01/15 01:49:53;;;;;;;0.73;0.28;;;8.90;99.90;;;;;;5091996;28;20020;-35
2023/01/15 01:52:36;;;;;;;2.25;0.50;;;8.90;99.90;;;;;;5091981;28;20023;-34
2023/01/15 01:55:06;;;;;;;0.40;0.40;;;8.90;99.90;;;;;;5093320;28;20016;-34
2023/01/15 01:57:32;;;;;;;0.43;0.30;;;9.00;99.90;;;;;;5091382;28;20504;-35
2023/01/15 01:59:59;;;;;;;0.60;0.47;;;9.00;99.90;;;;;;5092463;28;20031;-35
2023/01/15 02:02:25;;;;;;;0.35;0.22;;;9.00;99.90;;;;;;5092862;28;20321;-35
2023/01/15 02:04:51;;;;;;;0.30;0.30;;;8.90;99.90;;;;;;5092692;28;20122;-35
2023/01/15 02:07:17;;;;;;;0.90;0.45;;;9.00;99.90;;;;;;5091943;28;20028;-34
2023/01/15 02:09:43;;;;;;;0.55;0.40;;;9.00;99.90;;;;;;5091615;28;20028;-34
2023/01/15 02:12:18;;;;;;;0.70;0.40;;;8.90;99.90;;;;;;5091792;28;20024;-35
2023/01/15 02:15:01;;;;;;;0.38;0.30;;;9.00;99.90;;;;;;5091690;28;20020;-34
2023/01/15 02:17:42;;;;;;;0.70;0.40;;;9.00;99.90;;;;;;5092308;28;20028;-35
2023/01/15 02:20:22;;;;;;;0.60;0.40;;;9.00;99.90;;;;;;5093206;28;20349;-34
2023/01/15 02:23:00;;;;;;;0.57;0.25;;;9.00;99.90;;;;;;5093204;28;20390;-35
2023/01/15 02:25:54;;;;;;;0.45;0.40;;;9.00;99.90;;;;;;5093481;28;20027;-35
2023/01/15 02:28:26;;;;;;;0.47;0.30;;;9.00;99.90;;;;;;5091552;28;20452;-35
2023/01/15 02:31:11;;;;;;;0.43;0.30;;;9.00;99.90;;;;;;5091432;28;20027;-35
2023/01/15 02:33:54;;;;;;;0.30;0.20;;;9.00;99.90;;;;;;5091350;28;20047;-35
2023/01/15 02:36:23;;;;;;;0.80;0.30;;;9.00;99.90;;;;;;5091127;28;20028;-35
2023/01/15 02:38:53;;;;;;;0.20;0.20;;;9.00;99.90;;;;;;5091219;28;20024;-34
2023/01/15 02:41:29;;;;;;;0.55;0.40;;;9.00;99.90;;;;;;5095012;28;20032;-34
2023/01/15 02:43:56;;;;;;;0.65;0.20;;;9.00;99.90;;;;;;5095917;28;20444;-35
2023/01/15 02:46:28;;;;;;;0.57;0.30;;;9.00;99.90;;;;;;5095203;28;20024;-35
2023/01/15 02:48:56;;;;;;;0.63;0.38;;;9.00;99.90;;;;;;5095374;28;20020;-34
2023/01/15 02:51:26;;;;;;;0.50;0.30;;;9.00;99.90;;;;;;5096280;28;20028;-34
2023/01/15 02:53:56;;;;;;;1.77;0.20;;;9.10;99.90;;;;;;5096342;28;20028;-34
2023/01/15 02:56:25;;;;;;;1.52;0.20;;;9.00;99.90;;;;;;5096200;28;20119;-34
2023/01/15 02:58:56;;;;;;;0.57;0.20;;;9.00;99.90;;;;;;5095517;28;20397;-35
2023/01/15 03:01:31;;;;;;;0.30;0.20;;;9.00;99.90;;;;;;5095036;28;20386;-35
2023/01/15 03:04:09;;;;;;;0.45;0.30;;;9.00;99.90;;;;;;5095234;28;20462;-34
2023/01/15 03:06:51;;;;;;;0.20;0.20;;;9.00;99.90;;;;;;5094964;28;20091;-34
2023/01/15 03:09:18;;;;;;;0.40;0.30;;;9.00;99.90;;;;;;5095468;28;20027;-35
2023/01/15 03:11:49;;;;;;;0.20;0.20;;;9.00;99.90;;;;;;5095070;28;20103;-34
2023/01/15 03:14:32;;;;;;;0.38;0.30;;;9.00;99.90;;;;;;5095035;28;20111;-34
2023/01/15 03:17:08;;;;;;;0.47;0.40;;;9.00;99.90;;;;;;5095389;28;20032;-34
2023/01/15 03:19:57;;;;;;;0.30;0.25;;;9.00;99.90;;;;;;5094823;28;20473;-35
2023/01/15 03:22:35;;;;;;;0.60;0.38;;;9.00;99.90;;;;;;5094732;28;20490;-35
2023/01/15 03:25:23;;;;;;;0.20;0.20;;;9.00;99.90;;;;;;5094754;28;20465;-34
2023/01/15 03:27:51;;;;;;;0.32;0.30;;;9.00;99.90;;;;;;5094405;28;20130;-35
2023/01/15 03:30:20;;;;;;;0.60;0.30;;;9.00;99.90;;;;;;5094748;28;20035;-36
2023/01/15 03:32:47;;;;;;;0.40;0.30;;;9.00;99.90;;;;;;5095874;28;20032;-34
2023/01/15 03:35:51;;;;;;;0.68;0.30;;;9.00;99.90;;;;;;5094627;28;20405;-35
2023/01/15 03:38:20;;;;;;;0.20;0.20;;;9.00;99.90;;;;;;5095266;28;20019;-34
2023/01/15 03:40:54;;;;;;;0.70;0.30;;;9.00;99.90;;;;;;5094666;28;20861;-35
2023/01/15 03:43:42;;;;;;;1.90;0.30;;;9.00;99.90;;;;;;5095137;28;20450;-35
2023/01/15 03:46:28;;;;;;;1.27;0.32;;;9.00;99.90;;;;;;5094664;28;20473;-34
2023/01/15 03:49:18;;;;;;;1.00;0.50;;;9.00;99.90;;;;;;5096455;28;20094;-34
2023/01/15 03:52:02;;;;;;;0.50;0.30;;;9.00;99.90;;;;;;5094200;28;20477;-35
2023/01/15 03:54:31;;;;;;;;;;;9.00;99.90;;;;;;5095466;28;20031;-35
2023/01/15 03:57:29;;;;;;;0.25;0.20;;;9.10;99.90;;;;;;5093774;28;19916;-34
2023/01/15 04:00:03;;;;;;;0.65;0.32;;;9.00;99.90;;;;;;5092260;28;20086;-34
2023/01/15 04:02:29;;;;;;;0.30;0.30;;;9.00;99.90;;;;;;5093330;28;20101;-34
2023/01/15 04:04:57;;;;;;;0.55;0.30;;;9.10;99.90;;;;;;5094109;28;20024;-34
2023/01/15 04:07:23;;;;;;;0.52;0.25;;;9.00;99.90;;;;;;5093705;28;20490;-35
2023/01/15 04:09:49;;;;;;;0.30;0.30;;;9.00;99.90;;;;;;5093858;28;20067;-35
2023/01/15 04:12:15;;;;;;;0.30;0.22;;;9.10;99.90;;;;;;5093893;28;20481;-34
2023/01/15 04:14:40;;;;;;;0.40;0.30;;;9.00;99.90;;;;;;5094544;28;20111;-35
2023/01/15 04:17:06;;;;;;;0.20;0.20;;;9.10;99.90;;;;;;5094626;28;20017;-34
2023/01/15 04:19:32;;;;;;;0.60;0.30;;;9.00;99.90;;;;;;5094319;28;20044;-34
2023/01/15 04:21:57;;;;;;;0.30;0.20;;;9.00;99.90;;;;;;5093917;28;20040;-35
2023/01/15 04:24:23;;;;;;;0.85;0.35;;;9.10;99.90;;;;;;5094610;28;20024;-35
2023/01/15 04:26:49;;;;;;;0.20;0.20;;;9.00;99.90;;;;;;5094252;28;20020;-34
2023/01/15 04:29:14;;;;;;;0.40;0.30;;;9.10;99.90;;;;;;5094073;28;20266;-35
2023/01/15 04:31:40;;;;;;;0.40;0.30;;;9.00;99.90;;;;;;5093527;28;20020;-34
2023/01/15 04:34:05;;;;;;;1.23;0.25;;;9.00;99.90;;;;;;5094476;28;20491;-35
2023/01/15 04:36:37;;;;;;;0.50;0.30;;;9.00;99.90;;;;;;5093140;28;20053;-35
2023/01/15 04:39:04;;;;;;;2.53;0.40;;;9.00;99.90;;;;;;5094613;28;20031;-35
2023/01/15 04:44:14;;;;;;;0.63;0.30;;;9.00;99.90;;;;;;5093620;28;20504;-34
2023/01/15 04:46:45;;;;;;;0.93;0.25;;;9.10;99.90;;;;;;5092903;28;20124;-34
2023/01/15 04:49:13;;;;;;;0.40;0.30;;;9.00;99.90;;;;;;5093196;28;20452;-33
2023/01/15 04:51:39;;;;;;;0.22;0.22;;;9.10;99.90;;;;;;5093017;28;20081;-34
2023/01/15 04:54:07;;;;;;;0.32;0.30;;;9.10;99.90;;;;;;5093152;28;20024;-35
2023/01/15 04:56:38;;;;;;;3.20;0.30;;;9.00;99.90;;;;;;5093785;28;20028;-35
2023/01/15 04:59:04;;;;;;;0.28;0.20;;;9.10;99.90;;;;;;5093404;28;20027;-34
2023/01/15 05:01:30;;;;;;;0.47;0.30;;;9.00;99.90;;;;;;5092854;28;20035;-33
2023/01/15 05:03:57;;;;;;;0.60;0.40;;;9.10;99.90;;;;;;5091981;28;20108;-35
2023/01/15 05:06:23;;;;;;;0.70;0.40;;;9.00;99.90;;;;;;5092631;28;20101;-35
2023/01/15 05:08:49;;;;;;;0.82;0.40;;;9.10;99.90;;;;;;5092718;28;20097;-34
2023/01/15 05:11:14;;;;;;;0.35;0.30;;;9.00;99.90;;;;;;5092747;28;20477;-35
2023/01/15 05:13:40;;;;;;;0.43;0.40;;;9.00;99.90;;;;;;5091587;28;20024;-35
2023/01/15 05:16:08;;;;;;;0.40;0.30;;;9.10;99.90;;;;;;5092495;28;20036;-34
2023/01/15 05:18:33;;;;;;;1.20;0.30;;;9.10;99.90;;;;;;5092563;28;20130;-34
2023/01/15 05:20:59;;;;;;;0.60;0.32;;;9.00;99.90;;;;;;5092531;28;20102;-35
2023/01/15 05:23:24;;;;;;;0.75;0.30;;;9.10;99.90;;;;;;5092823;28;20043;-35
2023/01/15 05:25:50;;;;;;;0.40;0.30;;;9.10;99.90;;;;;;5092797;28;20024;-35
2023/01/15 05:28:15;;;;;;;0.22;0.17;;;9.10;99.90;;;;;;5094277;28;20495;-35
2023/01/15 05:30:41;;;;;;;0.70;0.30;;;9.00;99.90;;;;;;5093642;28;20089;-35
2023/01/15 05:33:07;;;;;;;0.30;0.30;;;9.00;99.90;;;;;;5092729;28;20608;-34
2023/01/15 05:35:32;;;;;;;0.73;0.45;;;9.10;99.90;;;;;;5092794;28;20106;-35
2023/01/15 05:37:58;;;;;;;0.60;0.20;;;9.10;99.90;;;;;;5092007;28;20390;-35
2023/01/15 05:40:26;;;;;;;0.30;0.25;;;9.00;99.90;;;;;;5092890;28;20027;-35
2023/01/15 05:42:52;;;;;;;0.20;0.20;;;9.00;99.90;;;;;;5092514;28;20031;-35
2023/01/15 05:45:18;;;;;;;0.40;0.32;;;9.10;99.90;;;;;;5092107;28;20047;-35
2023/01/15 05:47:43;;;;;;;0.10;0.10;;;9.00;99.90;;;;;;5091739;28;20025;-34
2023/01/15 05:50:09;;;;;;;0.82;0.40;;;9.00;99.90;;;;;;5092044;28;20114;-35
2023/01/15 05:52:35;;;;;;;0.65;0.20;;;9.00;99.90;;;;;;5092309;28;20409;-35
2023/01/15 05:55:01;;;;;;;0.17;0.17;;;9.00;99.90;;;;;;5091903;28;20035;-35
2023/01/15 05:57:26;;;;;;;0.52;0.40;;;9.00;99.90;;;;;;5091443;28;20085;-34
2023/01/15 05:59:53;;;;;;;0.20;0.20;;;9.00;99.90;;;;;;5091737;28;20565;-36
2023/01/15 06:02:18;;;;;;;0.30;0.30;;;9.00;99.90;;;;;;5091855;28;20028;-34
2023/01/15 06:04:44;;;;;;;0.35;0.30;;;9.00;99.90;;;;;;5091800;28;20024;-34
2023/01/15 06:07:09;;;;;;;0.22;0.20;;;9.00;99.90;;;;;;5091526;28;20035;-35
2023/01/15 06:09:35;;;;;;;0.17;0.17;;;9.00;99.90;;;;;;5093601;28;20016;-34
2023/01/15 06:12:01;;;;;;;0.90;0.35;;;9.00;99.90;;;;;;5092344;28;20489;-34
2023/01/15 06:14:26;;;;;;;0.40;0.20;;;8.90;99.90;;;;;;5090869;28;20490;-35
2023/01/15 06:16:52;;;;;;;0.77;0.30;;;9.00;99.90;;;;;;5091415;28;20020;-35
2023/01/15 06:19:18;;;;;;;0.63;0.20;;;9.00;99.90;;;;;;5091637;28;20381;-35
2023/01/15 06:21:43;;;;;;;0.32;0.20;;;8.90;99.90;;;;;;5091568;28;20039;-34
2023/01/15 06:24:09;;;;;;;0.30;0.25;;;8.90;99.90;;;;;;5092629;28;20035;-35
2023/01/15 06:26:36;;;;;;;0.52;0.20;;;9.00;99.90;;;;;;5092664;28;20035;-35
2023/01/15 06:29:01;;;;;;;0.13;0.13;;;8.90;99.90;;;;;;5092131;28;20028;-34
2023/01/15 06:31:27;;;;;;;0.20;0.20;;;8.90;99.90;;;;;;5091646;28;20043;-35
2023/01/15 06:33:53;;;;;;;0.20;0.20;;;8.90;99.90;;;;;;5091447;28;20030;-35
2023/01/15 06:36:22;;;;;;;0.30;0.30;;;8.90;99.90;;;;;;5091161;28;20036;-35
2023/01/15 06:38:48;;;;;;;0.40;0.20;;;8.90;99.90;;;;;;5091292;28;20034;-35
2023/01/15 06:49:36;;;;;;;0.65;0.20;;;8.90;99.90;;;;;;5093218;28;20031;-35
2023/01/15 06:52:02;;;;;;;0.20;0.20;;;8.90;99.90;;;;;;5091258;28;20061;-34
2023/01/15 06:54:28;;;;;;;0.30;0.20;;;8.90;99.90;;;;;;5090912;28;20033;-34
2023/01/15 06:56:57;;;;;;;0.20;0.20;;;8.90;99.90;;;;;;5091697;28;20509;-34
2023/01/15 06:59:22;;;;;;;0.57;0.17;;;8.90;99.90;;;;;;5091427;28;20448;-35
2023/01/15 07:01:48;;;;;;;0.10;0.10;;;8.90;99.90;;;;;;5092512;28;20032;-35
2023/01/15 07:04:14;;;;;;;0.20;0.20;;;8.90;99.90;;;;;;5090974;28;20028;-34
2023/01/15 07:06:41;;;;;;;0.20;0.20;;;8.90;99.90;;;;;;5091479;28;20377;-35
2023/01/15 07:09:07;;;;;;;0.20;0.20;;;8.90;99.90;;;;;;5091964;28;20428;-34
2023/01/15 07:11:33;;;;;;;0.47;0.20;;;8.90;99.90;;;;;;5091120;28;20025;-34
2023/01/15 07:14:04;;;;;;;0.17;0.17;;;8.90;99.90;;;;;;5091706;28;20024;-35
2023/01/15 07:16:34;;;;;;;0.20;0.20;;;8.90;99.90;;;;;;5092267;28;20383;-34
2023/01/15 07:19:00;;;;;;;0.28;0.28;;;8.90;99.90;;;;;;5091474;28;20080;-34
2023/01/15 07:21:26;;;;;;;0.20;0.20;;;8.90;99.90;;;;;;5092117;28;20028;-34
2023/01/15 07:23:52;;;;;;;0.98;0.35;;;8.90;99.90;;;;;;5091296;28;20020;-36
2023/01/15 07:26:18;;;;;;;0.20;0.13;;;8.90;99.90;;;;;;5092535;28;20066;-35
2023/01/15 07:28:44;;;;;;;0.20;0.20;;;8.90;99.90;;;;;;5094693;28;20070;-34
2023/01/15 07:31:09;;;;;;;0.20;0.20;;;8.90;99.90;;;;;;5094585;28;20039;-35
2023/01/15 07:33:35;;;;;;;0.20;0.20;;;8.90;99.90;;;;;;5094881;28;20133;-34
2023/01/15 07:36:05;;;;;;;0.25;0.25;;;8.90;99.90;;;;;;5093926;28;20255;-34
2023/01/15 07:38:30;;;;;;;0.20;0.20;;;8.90;99.90;;;;;;5094488;28;20024;-36
2023/01/15 07:51:55;;;;;;;0.95;0.52;;;8.80;99.90;;;;;;5097335;28;20077;-35
2023/01/15 07:54:21;;;;;;;0.50;0.40;;;8.80;99.90;;;;;;5093205;28;20036;-34
2023/01/15 07:56:47;;;;;;;0.60;0.40;;;8.90;99.90;;;;;;5094088;28;20024;-34
2023/01/15 07:59:13;;;;;;;1.17;0.60;;;8.80;99.90;;;;;;5094161;28;20481;-35
2023/01/15 08:01:39;;;;;;;0.60;0.45;;;8.80;99.90;;;;;;5094072;28;20036;-36
2023/01/15 08:04:05;;;;;;;1.05;0.65;;;8.90;99.90;;;;;;5094328;28;20640;-35
2023/01/15 08:06:30;;;;;;;2.70;0.95;;;8.80;99.90;;;;;;5095542;28;20176;-34
2023/01/15 08:08:56;;;;;;;1.75;0.90;;;8.80;99.90;;;;;;5095971;28;20501;-35
2023/01/15 08:16:51;;;;;;;0.50;0.40;;;8.80;99.90;;;;;;5093647;28;20096;-34
2023/01/15 08:19:16;;;;;;;0.90;0.60;;;8.80;99.90;;;;;;5094766;28;20533;-35
2023/01/15 08:21:42;;;;;;;0.70;0.50;;;8.80;99.90;;;;;;5092556;28;20035;-35
2023/01/15 08:24:08;;;;;;;1.23;0.40;;;8.80;99.90;;;;;;5093613;28;20070;-35
2023/01/15 08:26:33;;;;;;;0.40;0.35;;;8.80;99.90;;;;;;5093532;28;20197;-34
2023/01/15 08:28:59;;;;;;;0.85;0.50;;;8.80;99.90;;;;;;5094176;28;20385;-36
2023/01/15 08:31:25;;;;;;;0.57;0.50;;;8.80;99.90;;;;;;5094187;28;20028;-34
2023/01/15 08:33:50;;;;;;;1.00;0.60;;;8.80;99.90;;;;;;5093543;28;20020;-35
2023/01/15 08:36:19;;;;;;;0.70;0.50;;;8.80;99.90;;;;;;5093257;28;20032;-35
2023/01/15 08:38:47;;;;;;;0.95;0.40;;;8.80;99.90;;;;;;5092657;28;20038;-34
2023/01/15 08:41:12;;;;;;;0.47;0.30;;;8.80;99.90;;;;;;5095285;28;20024;-34
2023/01/15 08:43:40;;;;;;;0.68;0.47;;;8.80;99.90;;;;;;5096928;28;20028;-34
2023/01/15 08:46:06;;;;;;;0.65;0.50;;;8.80;99.90;;;;;;5093031;28;20043;-34
2023/01/15 08:48:32;;;;;;;0.80;0.50;;;8.80;99.90;;;;;;5093694;28;20473;-35
2023/01/15 08:51:01;;;;;;;0.40;0.40;;;8.80;99.90;;;;;;5094324;28;20390;-34
2023/01/15 08:53:28;;;;;;;0.90;0.68;;;8.80;99.90;;;;;;5093086;28;20465;-35
2023/01/15 08:55:54;;;;;;;0.73;0.50;;;8.80;99.90;;;;;;5092807;28;20020;-34
2023/01/15 08:58:19;;;;;;;0.63;0.63;;;8.80;99.90;;;;;;5093728;28;20558;-34
2023/01/15 09:00:45;;;;;;;0.82;0.50;;;8.80;99.90;;;;;;5093460;28;20028;-34
2023/01/15 09:03:10;;;;;;;1.02;0.60;;;8.80;99.90;;;;;;5092590;28;20515;-35
2023/01/15 09:05:37;;;;;;;0.60;0.50;;;8.80;99.90;;;;;;5093092;28;20042;-34
2023/01/15 09:08:06;;;;;;;1.02;0.55;;;8.80;99.90;;;;;;5094427;28;20100;-34
2023/01/15 09:10:32;;;;;;;1.15;0.60;;;8.80;99.90;;;;;;5092795;28;20125;-34
2023/01/15 09:13:00;;;;;;;0.70;0.40;;;8.80;99.90;;;;;;5092866;28;20020;-35
2023/01/15 09:15:27;;;;;;;0.52;0.50;;;8.80;99.90;;;;;;5092678;28;20157;-35
2023/01/15 09:17:52;;;;;;;0.60;0.50;;;8.80;99.90;;;;;;5092319;28;20120;-34
2023/01/15 09:20:18;;;;;;;0.65;0.55;;;8.80;99.90;;;;;;5092477;28;20603;-33
2023/01/15 09:22:44;;;;;;;0.77;0.45;;;8.80;99.90;;;;;;5092764;28;20028;-34
2023/01/15 09:25:09;;;;;;;0.57;0.47;;;8.80;99.90;;;;;;5092544;28;20024;-35
2023/01/15 09:27:37;;;;;;;0.98;0.50;;;8.80;99.90;;;;;;5092115;28;20040;-35
2023/01/15 09:30:03;;;;;;;0.80;0.60;;;8.80;99.90;;;;;;5092896;28;20016;-34
2023/01/15 09:32:29;;;;;;;0.80;0.50;;;8.80;99.90;;;;;;5092344;28;20069;-35
2023/01/15 09:34:55;;;;;;;0.50;0.50;;;8.80;99.90;;;;;;5092356;28;20024;-34
2023/01/15 09:37:20;;;;;;;0.68;0.50;;;8.80;99.90;;;;;;5092077;28;20461;-35
2023/01/15 09:39:46;;;;;;;0.70;0.50;;;8.80;99.90;;;;;;5092204;28;20016;-35
2023/01/15 09:42:17;;;;;;;0.85;0.50;;;8.80;99.90;;;;;;5092307;28;20385;-35
2023/01/15 09:45:18;;;;;;;1.10;0.47;;;8.80;99.90;;;;;;5092110;28;20020;-34
2023/01/15 09:48:08;;;;;;;1.95;1.10;;;8.80;99.90;;;;;;5088417;28;20055;-34
2023/01/15 09:50:39;;;;;;;0.90;0.70;;;8.80;99.90;;;;;;5091991;28;20020;-34
2023/01/15 09:53:25;;;;;;;2.25;1.27;;;8.80;99.90;;;;;;5093371;28;20504;-34
2023/01/15 09:55:53;;;;;;;1.13;0.80;;;8.80;99.90;;;;;;5093420;28;20110;-35
2023/01/15 09:58:31;;;;;;;1.20;0.80;;;8.80;99.90;;;;;;5092626;28;20110;-34
2023/01/15 10:00:57;;;;;;;0.90;0.75;;;8.80;99.90;;;;;;5093034;28;20050;-35
2023/01/15 10:03:41;;;;;;;1.25;0.80;;;8.80;99.90;;;;;;5091530;28;20020;-33
2023/01/15 10:06:10;;;;;;;1.13;0.80;;;8.70;99.90;;;;;;5091830;28;20504;-34
2023/01/15 10:08:41;;;;;;;1.25;0.90;;;8.80;99.90;;;;;;5091677;28;20069;-34
2023/01/15 10:11:16;;;;;;;1.17;0.70;;;8.80;99.90;;;;;;5093284;28;20055;-35
2023/01/15 10:13:48;;;;;;;2.10;1.00;;;8.80;99.90;;;;;;5091663;28;20590;-34
2023/01/15 10:16:23;;;;;;;0.90;0.70;;;8.70;99.90;;;;;;5091406;28;20107;-34
2023/01/15 10:18:50;;;;;;;1.80;1.00;;;8.80;99.90;;;;;;5091508;28;20062;-33
2023/01/15 10:21:50;;;;;;;2.10;1.08;;;8.70;99.90;;;;;;5091532;28;20028;-34
2023/01/15 10:24:31;;;;;;;1.50;1.02;;;8.80;99.90;;;;;;5092149;28;20027;-35
2023/01/15 10:26:59;;;;;;;1.33;1.00;;;8.80;99.90;;;;;;5091298;28;20478;-34
2023/01/15 10:30:02;;;;;;;2.75;1.27;;;8.70;99.90;;;;;;5091077;28;20111;-34
2023/01/15 10:32:52;;;;;;;2.85;1.00;;;8.70;99.90;;;;;;5091772;28;20020;-35
2023/01/15 10:35:42;;;;;;;2.35;1.17;;;8.70;99.90;;;;;;5091627;28;20035;-34
2023/01/15 10:38:32;;;;;;;1.63;1.10;;;8.70;99.90;;;;;;5091264;28;20028;-35
2023/01/15 10:41:28;;;;;;;1.88;1.00;;;8.70;99.90;;;;;;5091363;28;20029;-35
2023/01/15 10:44:19;;;;;;;2.22;1.10;;;8.80;99.90;;;;;;5091644;28;20477;-36
2023/01/15 10:46:52;;;;;;;1.88;0.90;;;8.70;99.90;;;;;;5091121;28;20024;-35
2023/01/15 10:49:18;;;;;;;1.20;0.77;;;8.70;99.90;;;;;;5091913;28;20024;-35
2023/01/15 10:51:58;;;;;;;1.58;1.00;;;8.70;99.90;;;;;;5092860;28;20038;-34
2023/01/15 10:54:39;;;;;;;1.45;0.95;;;8.70;99.90;;;;;;5091288;28;20043;-34
2023/01/15 10:57:34;;;;;;;1.10;0.90;;;8.70;99.90;;;;;;5090966;28;20065;-34
2023/01/15 11:00:00;;;;;;;3.05;1.05;;;8.70;99.90;;;;;;5090783;28;20040;-36
2023/01/15 11:02:51;;;;;;;1.40;1.00;;;8.70;99.90;;;;;;5094966;28;20389;-34
2023/01/15 11:05:19;;;;;;;1.48;0.98;;;8.70;99.90;;;;;;5095295;28;20020;-34
2023/01/15 11:07:47;;;;;;;0.85;0.70;;;8.70;99.90;;;;;;5094813;28;20032;-35
2023/01/15 11:10:16;;;;;;;1.35;0.73;;;8.70;99.90;;;;;;5095358;28;20435;-34
2023/01/15 11:21:27;;;;;;;1.23;0.80;;;8.70;99.90;;;;;;5095848;28;20074;-35
2023/01/15 11:23:54;;;;;;;1.27;0.88;;;8.70;99.90;;;;;;5094910;28;20028;-35
2023/01/15 11:26:29;;;;;;;1.02;0.73;;;8.70;99.90;;;;;;5094582;28;20103;-35
2023/01/15 11:28:57;;;;;;;1.20;0.90;;;8.60;99.90;;;;;;5094748;28;20074;-35
2023/01/15 11:31:35;;;;;;;1.05;0.88;;;8.60;99.90;;;;;;5094928;28;20027;-35
2023/01/15 11:34:03;;;;;;;0.73;0.70;;;8.60;99.90;;;;;;5096476;28;20028;-35
2023/01/15 11:36:29;;;;;;;1.10;0.80;;;8.60;99.90;;;;;;5094786;28;20020;-35
2023/01/15 11:38:56;;;;;;;1.10;0.70;;;8.60;99.90;;;;;;5094493;28;20080;-35
2023/01/15 11:52:48;;;;;;;1.20;0.88;;;8.50;99.90;;;;;;5094711;28;20024;-34
2023/01/15 11:55:18;;;;;;;3.13;0.85;;;8.50;99.90;;;;;;5094556;28;20024;-34
2023/01/15 11:57:44;;;;;;;3.72;0.80;;;8.60;99.90;;;;;;5094483;28;20103;-35
2023/01/15 12:00:24;;;;;;;1.30;0.82;;;8.60;99.90;;;;;;5094111;28;20020;-34
2023/01/15 12:02:53;;;;;;;1.48;0.98;;;8.60;99.90;;;;;;5094133;28;20019;-35
2023/01/15 12:05:33;;;;;;;1.60;0.90;;;8.50;99.90;;;;;;5094087;28;20024;-34
2023/01/15 12:08:02;;;;;;;0.93;0.63;;;8.50;99.90;;;;;;5093781;28;20027;-35
2023/01/15 12:11:03;;;;;;;3.10;1.40;;;8.50;99.90;;;;;;5095306;28;20580;-35
2023/01/15 12:13:45;;;;;;;3.80;1.55;;;8.50;99.90;;;;;;5093661;28;20028;-34
2023/01/15 12:16:23;;;;;;;1.58;1.10;;;8.50;99.90;;;;;;5094793;28;20106;-35
2023/01/15 12:18:59;;;;;;;1.85;1.20;;;8.50;99.90;;;;;;5094378;28;20035;-34
2023/01/15 12:21:34;;;;;;;1.50;0.98;;;8.50;99.90;;;;;;5093752;28;20031;-34
2023/01/15 12:24:18;;;;;;;2.58;1.38;;;8.50;99.90;;;;;;5093676;28;20490;-34
2023/01/15 12:27:20;;;;;;;3.45;1.75;;;8.50;99.90;;;;;;5093471;28;20105;-34
2023/01/15 12:29:53;;;;;;;4.25;2.08;;;8.50;99.90;;;;;;5094210;28;20028;-34
2023/01/15 12:32:32;;;;;;;3.55;1.70;;;8.50;99.90;;;;;;5094627;28;20031;-33
2023/01/15 12:35:17;;;;;;;3.47;1.67;;;8.50;99.90;;;;;;5093592;28;20106;-34
2023/01/15 12:38:11;;;;;;;2.53;1.45;;;8.50;99.90;;;;;;5093979;28;20024;-34
2023/01/15 12:40:46;;;;;;;2.40;1.50;;;8.50;99.90;;;;;;5093587;28;20020;-35
2023/01/15 12:46:16;;;;;;;2.38;1.25;;;8.50;99.90;;;;;;5093102;28;20035;-35
2023/01/15 12:49:03;;;;;;;3.08;1.35;;;8.50;99.90;;;;;;5093251;28;20027;-35
2023/01/15 12:51:42;;;;;;;1.88;1.15;;;8.50;99.90;;;;;;5093372;28;20031;-35
2023/01/15 12:54:14;;;;;;;2.97;1.83;;;8.50;99.90;;;;;;5094739;28;20482;-34
2023/01/15 12:57:28;;;;;;;1.75;1.20;;;8.50;99.90;;;;;;5092802;28;20061;-35
2023/01/15 13:00:00;;;;;;;1.92;1.20;;;8.50;99.90;;;;;;5087758;28;20040;-35
2023/01/15 13:02:31;;;;;;;3.17;1.20;;;8.50;99.90;;;;;;5092982;28;20470;-34
2023/01/15 13:05:10;;;;;;;2.65;1.20;;;8.50;99.90;;;;;;5092968;28;20104;-34
2023/01/15 13:07:43;;;;;;;2.40;1.23;;;8.50;99.90;;;;;;5092566;28;20051;-34
2023/01/15 13:10:21;;;;;;;1.42;1.10;;;8.50;99.90;;;;;;5093302;28;20389;-34
2023/01/15 13:12:46;;;;;;;2.33;1.17;;;8.50;99.90;;;;;;5093583;28;20020;-34
2023/01/15 13:15:16;;;;;;;3.00;1.40;;;8.50;99.90;;;;;;5093570;28;20020;-34
2023/01/15 13:18:03;;;;;;;1.92;1.00;;;8.50;99.90;;;;;;5094854;28;20389;-33
2023/01/15 13:20:50;;;;;;;2.38;1.33;;;8.50;99.90;;;;;;5093970;28;20111;-35
2023/01/15 13:23:34;;;;;;;3.25;1.17;;;8.50;99.90;;;;;;5093983;28;20030;-34
2023/01/15 13:26:17;;;;;;;2.85;1.42;;;8.50;99.90;;;;;;5092384;28;20024;-34
2023/01/15 13:28:51;;;;;;;3.38;1.40;;;8.50;99.90;;;;;;5092459;28;20028;-35
2023/01/15 13:31:16;;;;;;;3.03;1.53;;;8.50;99.90;;;;;;5094398;28;20039;-34
2023/01/15 13:33:52;;;;;;;2.30;1.20;;;8.50;99.90;;;;;;5092331;28;20092;-34
2023/01/15 13:36:22;;;;;;;3.75;1.60;;;8.50;99.90;;;;;;5092163;28;20032;-35
2023/01/15 13:38:53;;;;;;;2.75;1.50;;;8.50;99.90;;;;;;5092344;28;20035;-35
2023/01/15 13:44:36;;;;;;;2.78;1.50;;;8.50;99.90;;;;;;5092383;28;20534;-34
2023/01/15 13:47:06;;;;;;;3.40;1.63;;;8.50;99.90;;;;;;5091202;28;20036;-35
2023/01/15 13:49:35;;;;;;;1.80;1.05;;;8.60;99.90;;;;;;5092073;28;20039;-35
2023/01/15 13:52:07;;;;;;;3.08;1.10;;;8.50;99.90;;;;;;5092062;28;20055;-35
2023/01/15 13:54:39;;;;;;;3.38;1.30;;;8.60;99.90;;;;;;5092034;28;20066;-34
2023/01/15 13:57:21;;;;;;;2.92;1.05;;;8.60;99.90;;;;;;5091655;28;20500;-34
2023/01/15 13:59:48;;;;;;;2.10;1.00;;;8.50;99.90;;;;;;5091865;28;20501;-34
2023/01/15 14:02:30;;;;;;;2.15;1.00;;;8.60;99.90;;;;;;5091930;28;20020;-34
2023/01/15 14:04:57;;;;;;;1.48;0.90;;;8.60;99.90;;;;;;5092980;28;20048;-35
2023/01/15 14:07:34;;;;;;;3.20;1.13;;;8.60;99.90;;;;;;5091556;28;20073;-35
2023/01/15 14:10:20;;;;;;;3.38;1.00;;;8.60;99.90;;;;;;5092214;28;20401;-34
2023/01/15 14:13:10;;;;;;;2.85;1.10;;;8.60;99.90;;;;;;5091899;28;20477;-34
2023/01/15 14:15:44;;;;;;;2.20;0.98;;;8.60;99.90;;;;;;5091692;28;20058;-35
2023/01/15 14:18:34;;;;;;;;;;;8.60;99.90;;;;;;5092110;28;20032;-35